sensor_id;sensor_type;location;lat;lon;timestamp;temperature;humidity
10644;DHT22;5370;50.132;8.626;2022-09-16T00:00:14;16.70;59.80
10644;DHT22;5370;50.132;8.626;2022-09-16T00:02:40;16.70;59.70
10644;DHT22;5370;50.132;8.626;2022-09-16T00:05:06;16.70;59.80
10644;DHT22;5370;50.132;8.626;2022-09-16T00:07:32;16.70;59.90
10644;DHT22;5370;50.132;8.626;2022-09-16T00:09:58;16.70;59.80
10644;DHT22;5370;50.132;8.626;2022-09-16T00:12:23;16.70;59.60
10644;DHT22;5370;50.132;8.626;2022-09-16T00:14:51;16.70;59.60
10644;DHT22;5370;50.132;8.626;2022-09-16T00:17:17;16.60;59.50
10644;DHT22;5370;50.132;8.626;2022-09-16T00:19:43;16.60;59.60
10644;DHT22;5370;50.132;8.626;2022-09-16T00:22:08;16.60;59.70
10644;DHT22;5370;50.132;8.626;2022-09-16T00:24:34;16.50;59.60
10644;DHT22;5370;50.132;8.626;2022-09-16T00:26:59;16.50;59.60
10644;DHT22;5370;50.132;8.626;2022-09-16T00:29:25;16.50;59.60
10644;DHT22;5370;50.132;8.626;2022-09-16T00:31:51;16.40;59.50
10644;DHT22;5370;50.132;8.626;2022-09-16T00:34:16;16.40;59.40
10644;DHT22;5370;50.132;8.626;2022-09-16T00:36:42;16.30;59.40
10644;DHT22;5370;50.132;8.626;2022-09-16T00:39:07;16.30;59.40
10644;DHT22;5370;50.132;8.626;2022-09-16T00:41:33;16.30;60.10
10644;DHT22;5370;50.132;8.626;2022-09-16T00:44:04;16.20;59.60
10644;DHT22;5370;50.132;8.626;2022-09-16T00:46:44;16.30;59.70
10644;DHT22;5370;50.132;8.626;2022-09-16T00:49:26;16.20;59.60
10644;DHT22;5370;50.132;8.626;2022-09-16T00:51:56;16.20;59.60
10644;DHT22;5370;50.132;8.626;2022-09-16T00:54:24;16.10;59.60
10644;DHT22;5370;50.132;8.626;2022-09-16T00:56:52;16.10;59.80
10644;DHT22;5370;50.132;8.626;2022-09-16T00:59:23;16.10;60.00
10644;DHT22;5370;50.132;8.626;2022-09-16T01:01:53;16.00;60.00
10644;DHT22;5370;50.132;8.626;2022-09-16T01:04:25;16.00;59.90
10644;DHT22;5370;50.132;8.626;2022-09-16T01:06:52;16.00;59.90
10644;DHT22;5370;50.132;8.626;2022-09-16T01:09:21;16.00;59.90
10644;DHT22;5370;50.132;8.626;2022-09-16T01:11:47;15.90;59.90
10644;DHT22;5370;50.132;8.626;2022-09-16T01:14:13;15.90;59.90
10644;DHT22;5370;50.132;8.626;2022-09-16T01:20:06;15.90;59.80
10644;DHT22;5370;50.132;8.626;2022-09-16T01:28:26;15.90;59.90
10644;DHT22;5370;50.132;8.626;2022-09-16T01:33:55;15.90;59.70
10644;DHT22;5370;50.132;8.626;2022-09-16T01:36:37;15.80;59.70
10644;DHT22;5370;50.132;8.626;2022-09-16T01:42:00;15.80;59.90
10644;DHT22;5370;50.132;8.626;2022-09-16T01:47:35;15.80;60.20
10644;DHT22;5370;50.132;8.626;2022-09-16T01:50:23;15.90;61.10
10644;DHT22;5370;50.132;8.626;2022-09-16T01:53:12;15.90;60.50
10644;DHT22;5370;50.132;8.626;2022-09-16T01:59:06;16.00;60.10
10644;DHT22;5370;50.132;8.626;2022-09-16T02:01:21;16.00;60.10
10644;DHT22;5370;50.132;8.626;2022-09-16T02:03:53;16.00;60.10
10644;DHT22;5370;50.132;8.626;2022-09-16T02:06:21;16.00;60.00
10644;DHT22;5370;50.132;8.626;2022-09-16T02:09:01;16.00;60.00
10644;DHT22;5370;50.132;8.626;2022-09-16T02:11:28;16.00;60.00
10644;DHT22;5370;50.132;8.626;2022-09-16T02:14:11;16.00;60.00
10644;DHT22;5370;50.132;8.626;2022-09-16T02:17:00;16.10;60.00
10644;DHT22;5370;50.132;8.626;2022-09-16T02:19:35;16.00;59.90
10644;DHT22;5370;50.132;8.626;2022-09-16T02:22:06;16.00;59.90
10644;DHT22;5370;50.132;8.626;2022-09-16T02:24:33;16.00;59.80
10644;DHT22;5370;50.132;8.626;2022-09-16T02:27:01;16.10;59.90
10644;DHT22;5370;50.132;8.626;2022-09-16T02:29:36;16.10;60.00
10644;DHT22;5370;50.132;8.626;2022-09-16T02:32:05;16.00;59.90
10644;DHT22;5370;50.132;8.626;2022-09-16T02:34:42;16.00;60.00
10644;DHT22;5370;50.132;8.626;2022-09-16T02:39:48;16.00;60.40
10644;DHT22;5370;50.132;8.626;2022-09-16T02:42:14;16.00;60.50
10644;DHT22;5370;50.132;8.626;2022-09-16T02:44:41;15.90;60.40
10644;DHT22;5370;50.132;8.626;2022-09-16T02:47:17;15.90;60.50
10644;DHT22;5370;50.132;8.626;2022-09-16T02:50:42;15.90;60.70
10644;DHT22;5370;50.132;8.626;2022-09-16T02:52:58;15.90;60.90
10644;DHT22;5370;50.132;8.626;2022-09-16T02:55:55;15.80;60.80
10644;DHT22;5370;50.132;8.626;2022-09-16T02:58:22;15.80;60.90
10644;DHT22;5370;50.132;8.626;2022-09-16T03:00:51;15.80;61.10
10644;DHT22;5370;50.132;8.626;2022-09-16T03:03:18;15.80;61.20
10644;DHT22;5370;50.132;8.626;2022-09-16T03:08:25;15.70;61.50
10644;DHT22;5370;50.132;8.626;2022-09-16T03:10:51;15.70;61.40
10644;DHT22;5370;50.132;8.626;2022-09-16T03:16:23;15.60;61.50
10644;DHT22;5370;50.132;8.626;2022-09-16T03:22:01;15.50;61.60
10644;DHT22;5370;50.132;8.626;2022-09-16T03:24:43;15.50;61.80
10644;DHT22;5370;50.132;8.626;2022-09-16T03:27:18;15.50;62.10
10644;DHT22;5370;50.132;8.626;2022-09-16T03:30:07;15.50;62.20
10644;DHT22;5370;50.132;8.626;2022-09-16T03:32:43;15.60;62.60
10644;DHT22;5370;50.132;8.626;2022-09-16T03:37:53;15.50;63.10
10644;DHT22;5370;50.132;8.626;2022-09-16T03:40:19;15.50;63.00
10644;DHT22;5370;50.132;8.626;2022-09-16T03:42:45;15.50;63.00
10644;DHT22;5370;50.132;8.626;2022-09-16T03:45:16;15.50;63.00
10644;DHT22;5370;50.132;8.626;2022-09-16T03:47:43;15.50;63.00
10644;DHT22;5370;50.132;8.626;2022-09-16T03:50:09;15.50;63.10
10644;DHT22;5370;50.132;8.626;2022-09-16T03:52:35;15.50;63.20
10644;DHT22;5370;50.132;8.626;2022-09-16T03:55:01;15.50;63.30
10644;DHT22;5370;50.132;8.626;2022-09-16T03:57:26;15.50;63.50
10644;DHT22;5370;50.132;8.626;2022-09-16T03:59:52;15.50;63.70
10644;DHT22;5370;50.132;8.626;2022-09-16T04:02:18;15.50;63.70
10644;DHT22;5370;50.132;8.626;2022-09-16T04:04:44;15.50;63.70
10644;DHT22;5370;50.132;8.626;2022-09-16T04:07:09;15.40;63.60
10644;DHT22;5370;50.132;8.626;2022-09-16T04:09:35;15.40;63.50
10644;DHT22;5370;50.132;8.626;2022-09-16T04:12:01;15.40;63.70
10644;DHT22;5370;50.132;8.626;2022-09-16T04:14:27;15.30;63.60
10644;DHT22;5370;50.132;8.626;2022-09-16T04:16:53;15.30;63.80
10644;DHT22;5370;50.132;8.626;2022-09-16T04:19:19;15.30;64.10
10644;DHT22;5370;50.132;8.626;2022-09-16T04:21:45;15.20;64.10
10644;DHT22;5370;50.132;8.626;2022-09-16T04:24:10;15.10;64.30
10644;DHT22;5370;50.132;8.626;2022-09-16T04:26:36;15.10;64.40
10644;DHT22;5370;50.132;8.626;2022-09-16T04:29:01;15.10;64.80
10644;DHT22;5370;50.132;8.626;2022-09-16T04:31:27;15.00;64.90
10644;DHT22;5370;50.132;8.626;2022-09-16T04:33:52;15.00;65.00
10644;DHT22;5370;50.132;8.626;2022-09-16T04:36:19;15.00;65.30
10644;DHT22;5370;50.132;8.626;2022-09-16T04:38:45;14.90;65.50
10644;DHT22;5370;50.132;8.626;2022-09-16T04:41:17;14.90;65.80
10644;DHT22;5370;50.132;8.626;2022-09-16T04:43:43;14.90;66.10
10644;DHT22;5370;50.132;8.626;2022-09-16T04:46:09;14.90;66.10
10644;DHT22;5370;50.132;8.626;2022-09-16T04:48:35;14.90;66.20
10644;DHT22;5370;50.132;8.626;2022-09-16T04:51:06;14.90;66.10
10644;DHT22;5370;50.132;8.626;2022-09-16T04:53:33;14.90;66.10
10644;DHT22;5370;50.132;8.626;2022-09-16T04:56:20;14.90;66.40
10644;DHT22;5370;50.132;8.626;2022-09-16T04:58:48;14.90;66.80
10644;DHT22;5370;50.132;8.626;2022-09-16T05:01:18;14.90;66.90
10644;DHT22;5370;50.132;8.626;2022-09-16T05:03:46;14.80;67.00
10644;DHT22;5370;50.132;8.626;2022-09-16T05:06:20;14.70;67.00
10644;DHT22;5370;50.132;8.626;2022-09-16T05:08:46;14.70;67.50
10644;DHT22;5370;50.132;8.626;2022-09-16T05:11:17;14.70;67.70
10644;DHT22;5370;50.132;8.626;2022-09-16T05:13:44;14.70;67.80
10644;DHT22;5370;50.132;8.626;2022-09-16T05:16:12;14.60;67.60
10644;DHT22;5370;50.132;8.626;2022-09-16T05:18:39;14.60;67.80
10644;DHT22;5370;50.132;8.626;2022-09-16T05:21:07;14.60;67.90
10644;DHT22;5370;50.132;8.626;2022-09-16T05:23:34;14.60;68.10
10644;DHT22;5370;50.132;8.626;2022-09-16T05:26:05;14.60;68.20
10644;DHT22;5370;50.132;8.626;2022-09-16T05:28:33;14.60;68.50
10644;DHT22;5370;50.132;8.626;2022-09-16T05:31:15;14.70;68.70
10644;DHT22;5370;50.132;8.626;2022-09-16T05:33:44;14.70;68.90
10644;DHT22;5370;50.132;8.626;2022-09-16T05:36:12;14.70;68.90
10644;DHT22;5370;50.132;8.626;2022-09-16T05:38:38;14.70;68.80
10644;DHT22;5370;50.132;8.626;2022-09-16T05:41:05;14.80;68.80
10644;DHT22;5370;50.132;8.626;2022-09-16T05:43:31;14.80;69.00
10644;DHT22;5370;50.132;8.626;2022-09-16T05:45:58;14.80;69.00
10644;DHT22;5370;50.132;8.626;2022-09-16T05:48:24;14.80;69.20
10644;DHT22;5370;50.132;8.626;2022-09-16T05:50:55;14.90;69.60
10644;DHT22;5370;50.132;8.626;2022-09-16T05:53:22;15.00;69.50
10644;DHT22;5370;50.132;8.626;2022-09-16T05:56:05;15.10;70.00
10644;DHT22;5370;50.132;8.626;2022-09-16T05:58:32;15.20;69.30
10644;DHT22;5370;50.132;8.626;2022-09-16T06:00:59;15.30;69.20
10644;DHT22;5370;50.132;8.626;2022-09-16T06:03:26;15.30;68.80
10644;DHT22;5370;50.132;8.626;2022-09-16T06:05:52;15.40;68.50
10644;DHT22;5370;50.132;8.626;2022-09-16T06:08:17;15.40;68.50
10644;DHT22;5370;50.132;8.626;2022-09-16T06:10:43;15.40;68.30
10644;DHT22;5370;50.132;8.626;2022-09-16T06:13:08;15.40;68.00
10644;DHT22;5370;50.132;8.626;2022-09-16T06:15:34;15.50;67.90
10644;DHT22;5370;50.132;8.626;2022-09-16T06:18:00;15.50;67.80
10644;DHT22;5370;50.132;8.626;2022-09-16T06:20:26;15.60;67.70
10644;DHT22;5370;50.132;8.626;2022-09-16T06:22:52;15.70;67.70
10644;DHT22;5370;50.132;8.626;2022-09-16T06:25:17;15.80;67.30
10644;DHT22;5370;50.132;8.626;2022-09-16T06:27:43;15.90;67.20
10644;DHT22;5370;50.132;8.626;2022-09-16T06:30:09;15.90;67.00
10644;DHT22;5370;50.132;8.626;2022-09-16T06:32:34;16.00;66.90
10644;DHT22;5370;50.132;8.626;2022-09-16T06:35:00;16.10;66.90
10644;DHT22;5370;50.132;8.626;2022-09-16T06:37:25;16.20;66.70
10644;DHT22;5370;50.132;8.626;2022-09-16T06:39:51;16.30;66.10
10644;DHT22;5370;50.132;8.626;2022-09-16T06:42:16;16.40;65.70
10644;DHT22;5370;50.132;8.626;2022-09-16T06:44:42;16.50;65.30
10644;DHT22;5370;50.132;8.626;2022-09-16T06:47:08;16.60;65.20
10644;DHT22;5370;50.132;8.626;2022-09-16T06:49:33;16.60;64.90
10644;DHT22;5370;50.132;8.626;2022-09-16T06:51:59;16.70;64.50
10644;DHT22;5370;50.132;8.626;2022-09-16T06:54:24;16.90;64.30
10644;DHT22;5370;50.132;8.626;2022-09-16T06:56:50;17.00;63.90
10644;DHT22;5370;50.132;8.626;2022-09-16T06:59:15;17.10;63.50
10644;DHT22;5370;50.132;8.626;2022-09-16T07:01:41;17.10;63.10
10644;DHT22;5370;50.132;8.626;2022-09-16T07:04:08;17.10;62.90
10644;DHT22;5370;50.132;8.626;2022-09-16T07:06:35;17.20;62.90
10644;DHT22;5370;50.132;8.626;2022-09-16T07:09:01;17.30;62.80
10644;DHT22;5370;50.132;8.626;2022-09-16T07:11:27;17.30;62.70
10644;DHT22;5370;50.132;8.626;2022-09-16T07:13:53;17.40;62.40
10644;DHT22;5370;50.132;8.626;2022-09-16T07:16:23;17.40;61.90
10644;DHT22;5370;50.132;8.626;2022-09-16T07:18:53;17.40;61.80
10644;DHT22;5370;50.132;8.626;2022-09-16T07:21:21;17.40;61.60
10644;DHT22;5370;50.132;8.626;2022-09-16T07:23:48;17.40;61.10
10644;DHT22;5370;50.132;8.626;2022-09-16T07:26:19;17.40;60.50
10644;DHT22;5370;50.132;8.626;2022-09-16T07:28:47;17.30;59.80
10644;DHT22;5370;50.132;8.626;2022-09-16T07:31:16;17.20;59.90
10644;DHT22;5370;50.132;8.626;2022-09-16T07:33:44;17.10;59.80
10644;DHT22;5370;50.132;8.626;2022-09-16T07:36:11;17.00;59.70
10644;DHT22;5370;50.132;8.626;2022-09-16T07:38:37;17.00;59.90
10644;DHT22;5370;50.132;8.626;2022-09-16T07:41:11;17.10;60.00
10644;DHT22;5370;50.132;8.626;2022-09-16T07:43:38;17.20;59.60
10644;DHT22;5370;50.132;8.626;2022-09-16T07:46:05;17.40;59.30
10644;DHT22;5370;50.132;8.626;2022-09-16T07:48:32;17.50;58.70
10644;DHT22;5370;50.132;8.626;2022-09-16T07:51:08;17.60;58.40
10644;DHT22;5370;50.132;8.626;2022-09-16T07:53:35;17.70;57.80
10644;DHT22;5370;50.132;8.626;2022-09-16T07:56:06;17.90;57.30
10644;DHT22;5370;50.132;8.626;2022-09-16T07:58:32;17.80;56.60
10644;DHT22;5370;50.132;8.626;2022-09-16T08:01:01;17.80;56.60
10644;DHT22;5370;50.132;8.626;2022-09-16T08:03:27;17.70;56.60
10644;DHT22;5370;50.132;8.626;2022-09-16T08:05:58;17.70;56.50
10644;DHT22;5370;50.132;8.626;2022-09-16T08:08:25;17.80;56.70
10644;DHT22;5370;50.132;8.626;2022-09-16T08:10:54;17.80;56.50
10644;DHT22;5370;50.132;8.626;2022-09-16T08:13:20;17.90;56.10
10644;DHT22;5370;50.132;8.626;2022-09-16T08:15:46;18.10;55.60
10644;DHT22;5370;50.132;8.626;2022-09-16T08:18:12;18.10;55.20
10644;DHT22;5370;50.132;8.626;2022-09-16T08:20:37;18.20;54.90
10644;DHT22;5370;50.132;8.626;2022-09-16T08:23:03;18.40;54.20
10644;DHT22;5370;50.132;8.626;2022-09-16T08:25:28;18.40;54.10
10644;DHT22;5370;50.132;8.626;2022-09-16T08:27:54;18.40;54.00
10644;DHT22;5370;50.132;8.626;2022-09-16T08:30:20;18.40;54.00
10644;DHT22;5370;50.132;8.626;2022-09-16T08:32:45;18.50;54.60
10644;DHT22;5370;50.132;8.626;2022-09-16T08:35:11;18.60;54.00
10644;DHT22;5370;50.132;8.626;2022-09-16T08:37:39;18.70;54.00
10644;DHT22;5370;50.132;8.626;2022-09-16T08:40:06;18.80;54.00
10644;DHT22;5370;50.132;8.626;2022-09-16T08:50:27;20.40;50.00
10644;DHT22;5370;50.132;8.626;2022-09-16T08:52:56;20.40;49.00
10644;DHT22;5370;50.132;8.626;2022-09-16T08:55:29;20.50;48.40
10644;DHT22;5370;50.132;8.626;2022-09-16T08:58:02;20.70;48.20
10644;DHT22;5370;50.132;8.626;2022-09-16T09:00:28;21.30;48.10
10644;DHT22;5370;50.132;8.626;2022-09-16T09:06:24;22.50;45.60
10644;DHT22;5370;50.132;8.626;2022-09-16T09:11:27;23.30;43.70
10644;DHT22;5370;50.132;8.626;2022-09-16T09:16:45;23.30;42.20
10644;DHT22;5370;50.132;8.626;2022-09-16T09:19:47;23.10;41.90
10644;DHT22;5370;50.132;8.626;2022-09-16T09:28:33;22.40;42.50
10644;DHT22;5370;50.132;8.626;2022-09-16T09:34:10;21.60;43.80
10644;DHT22;5370;50.132;8.626;2022-09-16T09:39:43;21.30;44.40
10644;DHT22;5370;50.132;8.626;2022-09-16T09:42:20;21.40;44.60
10644;DHT22;5370;50.132;8.626;2022-09-16T09:44:58;21.40;44.20
10644;DHT22;5370;50.132;8.626;2022-09-16T09:47:31;21.60;44.20
10644;DHT22;5370;50.132;8.626;2022-09-16T09:50:14;21.50;43.50
10644;DHT22;5370;50.132;8.626;2022-09-16T09:52:59;21.30;43.00
10644;DHT22;5370;50.132;8.626;2022-09-16T09:55:31;21.10;43.50
10644;DHT22;5370;50.132;8.626;2022-09-16T10:00:48;20.90;43.90
10644;DHT22;5370;50.132;8.626;2022-09-16T10:03:15;20.80;44.10
10644;DHT22;5370;50.132;8.626;2022-09-16T10:05:42;20.80;44.10
10644;DHT22;5370;50.132;8.626;2022-09-16T10:08:28;20.70;44.00
10644;DHT22;5370;50.132;8.626;2022-09-16T10:10:59;20.50;44.00
10644;DHT22;5370;50.132;8.626;2022-09-16T10:13:27;20.40;44.20
10644;DHT22;5370;50.132;8.626;2022-09-16T10:16:10;20.30;44.30
10644;DHT22;5370;50.132;8.626;2022-09-16T10:18:37;20.20;44.50
10644;DHT22;5370;50.132;8.626;2022-09-16T10:21:13;20.20;44.80
10644;DHT22;5370;50.132;8.626;2022-09-16T10:23:39;20.20;45.10
10644;DHT22;5370;50.132;8.626;2022-09-16T10:26:21;20.30;45.10
10644;DHT22;5370;50.132;8.626;2022-09-16T10:29:02;20.30;45.00
10644;DHT22;5370;50.132;8.626;2022-09-16T10:31:37;20.20;45.30
10644;DHT22;5370;50.132;8.626;2022-09-16T10:34:11;20.30;45.30
10644;DHT22;5370;50.132;8.626;2022-09-16T10:36:38;20.30;45.40
10644;DHT22;5370;50.132;8.626;2022-09-16T10:39:04;20.30;45.40
10644;DHT22;5370;50.132;8.626;2022-09-16T10:41:42;20.20;45.40
10644;DHT22;5370;50.132;8.626;2022-09-16T10:44:15;20.20;45.50
10644;DHT22;5370;50.132;8.626;2022-09-16T10:46:53;20.20;45.50
10644;DHT22;5370;50.132;8.626;2022-09-16T10:49:25;20.30;45.40
10644;DHT22;5370;50.132;8.626;2022-09-16T10:51:52;20.30;45.20
10644;DHT22;5370;50.132;8.626;2022-09-16T10:54:24;20.40;45.40
10644;DHT22;5370;50.132;8.626;2022-09-16T10:56:52;20.50;45.00
10644;DHT22;5370;50.132;8.626;2022-09-16T10:59:18;20.50;44.60
10644;DHT22;5370;50.132;8.626;2022-09-16T11:02:14;20.50;44.10
10644;DHT22;5370;50.132;8.626;2022-09-16T11:05:23;20.50;44.00
10644;DHT22;5370;50.132;8.626;2022-09-16T11:08:42;20.40;43.90
10644;DHT22;5370;50.132;8.626;2022-09-16T11:11:19;20.20;44.70
10644;DHT22;5370;50.132;8.626;2022-09-16T11:13:50;20.20;45.00
10644;DHT22;5370;50.132;8.626;2022-09-16T11:19:25;20.20;45.10
10644;DHT22;5370;50.132;8.626;2022-09-16T11:22:35;20.20;45.30
10644;DHT22;5370;50.132;8.626;2022-09-16T11:30:27;20.80;45.50
10644;DHT22;5370;50.132;8.626;2022-09-16T11:33:36;21.10;45.40
10644;DHT22;5370;50.132;8.626;2022-09-16T11:50:26;20.90;44.60
10644;DHT22;5370;50.132;8.626;2022-09-16T11:53:41;20.40;46.40
10644;DHT22;5370;50.132;8.626;2022-09-16T11:56:13;19.80;47.40
10644;DHT22;5370;50.132;8.626;2022-09-16T11:58:50;19.10;49.10
10644;DHT22;5370;50.132;8.626;2022-09-16T12:01:41;18.60;50.30
10644;DHT22;5370;50.132;8.626;2022-09-16T12:04:28;18.20;51.80
10644;DHT22;5370;50.132;8.626;2022-09-16T12:10:11;17.60;53.80
10644;DHT22;5370;50.132;8.626;2022-09-16T12:12:43;17.40;54.60
10644;DHT22;5370;50.132;8.626;2022-09-16T12:18:08;17.30;56.30
10644;DHT22;5370;50.132;8.626;2022-09-16T12:20:44;17.40;56.70
10644;DHT22;5370;50.132;8.626;2022-09-16T12:26:01;17.50;57.50
10644;DHT22;5370;50.132;8.626;2022-09-16T12:28:42;17.70;58.30
10644;DHT22;5370;50.132;8.626;2022-09-16T12:31:20;17.80;58.20
10644;DHT22;5370;50.132;8.626;2022-09-16T12:33:58;18.00;58.50
10644;DHT22;5370;50.132;8.626;2022-09-16T12:36:28;18.20;58.30
10644;DHT22;5370;50.132;8.626;2022-09-16T12:38:58;18.40;57.70
10644;DHT22;5370;50.132;8.626;2022-09-16T12:41:50;18.70;57.80
10644;DHT22;5370;50.132;8.626;2022-09-16T12:44:49;19.00;58.40
10644;DHT22;5370;50.132;8.626;2022-09-16T12:50:11;19.90;57.90
10644;DHT22;5370;50.132;8.626;2022-09-16T12:56:05;20.40;57.30
10644;DHT22;5370;50.132;8.626;2022-09-16T13:03:55;20.60;56.80
10644;DHT22;5370;50.132;8.626;2022-09-16T13:06:31;20.70;56.30
10644;DHT22;5370;50.132;8.626;2022-09-16T13:09:14;20.70;55.70
10644;DHT22;5370;50.132;8.626;2022-09-16T13:11:40;20.80;55.20
10644;DHT22;5370;50.132;8.626;2022-09-16T13:14:19;20.90;54.30
10644;DHT22;5370;50.132;8.626;2022-09-16T13:16:52;21.00;52.60
10644;DHT22;5370;50.132;8.626;2022-09-16T13:19:36;21.10;51.40
10644;DHT22;5370;50.132;8.626;2022-09-16T13:22:26;21.10;51.50
10644;DHT22;5370;50.132;8.626;2022-09-16T13:25:27;21.10;50.30
10644;DHT22;5370;50.132;8.626;2022-09-16T13:28:21;21.10;50.20
10644;DHT22;5370;50.132;8.626;2022-09-16T13:30:47;21.10;49.80
10644;DHT22;5370;50.132;8.626;2022-09-16T13:33:27;21.10;49.60
10644;DHT22;5370;50.132;8.626;2022-09-16T13:38:50;21.10;49.10
10644;DHT22;5370;50.132;8.626;2022-09-16T13:41:37;21.10;48.80
10644;DHT22;5370;50.132;8.626;2022-09-16T13:46:51;21.00;48.60
10644;DHT22;5370;50.132;8.626;2022-09-16T13:49:22;20.80;49.00
10644;DHT22;5370;50.132;8.626;2022-09-16T13:51:50;20.60;48.30
10644;DHT22;5370;50.132;8.626;2022-09-16T13:54:28;20.30;48.80
10644;DHT22;5370;50.132;8.626;2022-09-16T14:00:09;19.80;50.50
10644;DHT22;5370;50.132;8.626;2022-09-16T14:02:41;19.50;51.10
10644;DHT22;5370;50.132;8.626;2022-09-16T14:05:15;19.30;51.20
10644;DHT22;5370;50.132;8.626;2022-09-16T14:08:00;19.20;51.80
10644;DHT22;5370;50.132;8.626;2022-09-16T14:13:18;18.90;53.20
10644;DHT22;5370;50.132;8.626;2022-09-16T14:15:51;18.90;54.00
10644;DHT22;5370;50.132;8.626;2022-09-16T14:18:20;18.80;54.30
10644;DHT22;5370;50.132;8.626;2022-09-16T14:23:18;18.80;54.60
10644;DHT22;5370;50.132;8.626;2022-09-16T14:25:44;18.80;55.00
10644;DHT22;5370;50.132;8.626;2022-09-16T14:28:24;18.90;55.40
10644;DHT22;5370;50.132;8.626;2022-09-16T14:30:59;19.00;56.00
10644;DHT22;5370;50.132;8.626;2022-09-16T14:33:32;19.20;56.10
10644;DHT22;5370;50.132;8.626;2022-09-16T14:35:59;19.30;56.00
10644;DHT22;5370;50.132;8.626;2022-09-16T14:38:36;19.40;55.80
10644;DHT22;5370;50.132;8.626;2022-09-16T14:41:05;19.50;55.70
10644;DHT22;5370;50.132;8.626;2022-09-16T14:43:32;19.50;55.50
10644;DHT22;5370;50.132;8.626;2022-09-16T14:45:59;19.60;55.50
10644;DHT22;5370;50.132;8.626;2022-09-16T14:48:29;19.60;55.90
10644;DHT22;5370;50.132;8.626;2022-09-16T14:50:57;19.60;55.30
10644;DHT22;5370;50.132;8.626;2022-09-16T14:55:50;19.60;55.10
10644;DHT22;5370;50.132;8.626;2022-09-16T14:58:16;19.70;55.10
10644;DHT22;5370;50.132;8.626;2022-09-16T15:03:44;19.80;55.40
10644;DHT22;5370;50.132;8.626;2022-09-16T15:06:15;19.90;55.10
10644;DHT22;5370;50.132;8.626;2022-09-16T15:08:52;20.00;54.50
10644;DHT22;5370;50.132;8.626;2022-09-16T15:11:22;20.20;54.10
10644;DHT22;5370;50.132;8.626;2022-09-16T15:13:51;20.30;53.40
10644;DHT22;5370;50.132;8.626;2022-09-16T15:16:19;20.20;51.80
10644;DHT22;5370;50.132;8.626;2022-09-16T15:18:56;20.20;50.60
10644;DHT22;5370;50.132;8.626;2022-09-16T15:23:56;19.80;48.70
10644;DHT22;5370;50.132;8.626;2022-09-16T15:29:05;19.10;48.70
10644;DHT22;5370;50.132;8.626;2022-09-16T15:31:37;18.70;49.40
10644;DHT22;5370;50.132;8.626;2022-09-16T15:34:20;18.30;49.80
10644;DHT22;5370;50.132;8.626;2022-09-16T15:36:48;18.00;50.20
10644;DHT22;5370;50.132;8.626;2022-09-16T15:39:24;17.70;50.50
10644;DHT22;5370;50.132;8.626;2022-09-16T15:44:32;17.30;51.20
10644;DHT22;5370;50.132;8.626;2022-09-16T15:46:59;17.00;51.60
10644;DHT22;5370;50.132;8.626;2022-09-16T15:49:26;16.80;52.40
10644;DHT22;5370;50.132;8.626;2022-09-16T15:51:53;16.70;53.60
10644;DHT22;5370;50.132;8.626;2022-09-16T15:54:35;16.40;54.50
10644;DHT22;5370;50.132;8.626;2022-09-16T15:57:07;16.20;55.60
10644;DHT22;5370;50.132;8.626;2022-09-16T15:59:56;16.00;56.40
10644;DHT22;5370;50.132;8.626;2022-09-16T16:05:13;15.70;57.30
10644;DHT22;5370;50.132;8.626;2022-09-16T16:07:48;15.60;57.70
10644;DHT22;5370;50.132;8.626;2022-09-16T16:12:44;15.50;58.50
10644;DHT22;5370;50.132;8.626;2022-09-16T16:15:15;15.50;58.90
10644;DHT22;5370;50.132;8.626;2022-09-16T16:17:41;15.60;59.00
10644;DHT22;5370;50.132;8.626;2022-09-16T16:20:07;15.70;59.00
10644;DHT22;5370;50.132;8.626;2022-09-16T16:22:36;15.90;58.90
10644;DHT22;5370;50.132;8.626;2022-09-16T16:25:01;16.00;58.70
10644;DHT22;5370;50.132;8.626;2022-09-16T16:27:27;16.10;58.70
10644;DHT22;5370;50.132;8.626;2022-09-16T16:29:52;16.20;58.60
10644;DHT22;5370;50.132;8.626;2022-09-16T16:32:18;16.20;58.40
10644;DHT22;5370;50.132;8.626;2022-09-16T16:34:45;16.30;58.60
10644;DHT22;5370;50.132;8.626;2022-09-16T16:37:19;16.40;58.50
10644;DHT22;5370;50.132;8.626;2022-09-16T16:39:45;16.30;58.30
10644;DHT22;5370;50.132;8.626;2022-09-16T16:42:12;16.20;58.30
10644;DHT22;5370;50.132;8.626;2022-09-16T16:44:38;16.20;58.40
10644;DHT22;5370;50.132;8.626;2022-09-16T16:47:04;16.10;58.50
10644;DHT22;5370;50.132;8.626;2022-09-16T16:49:30;16.00;58.30
10644;DHT22;5370;50.132;8.626;2022-09-16T16:51:56;15.90;58.30
10644;DHT22;5370;50.132;8.626;2022-09-16T16:54:24;15.80;58.50
10644;DHT22;5370;50.132;8.626;2022-09-16T16:56:51;15.70;58.50
10644;DHT22;5370;50.132;8.626;2022-09-16T16:59:17;15.60;58.50
10644;DHT22;5370;50.132;8.626;2022-09-16T17:01:43;15.50;58.30
10644;DHT22;5370;50.132;8.626;2022-09-16T17:04:10;15.50;58.30
10644;DHT22;5370;50.132;8.626;2022-09-16T17:06:36;15.30;58.20
10644;DHT22;5370;50.132;8.626;2022-09-16T17:09:03;15.20;58.10
10644;DHT22;5370;50.132;8.626;2022-09-16T17:11:30;15.10;58.10
10644;DHT22;5370;50.132;8.626;2022-09-16T17:14:01;15.10;58.20
10644;DHT22;5370;50.132;8.626;2022-09-16T17:16:27;15.00;58.20
10644;DHT22;5370;50.132;8.626;2022-09-16T17:18:54;14.90;58.30
10644;DHT22;5370;50.132;8.626;2022-09-16T17:21:23;14.80;58.40
10644;DHT22;5370;50.132;8.626;2022-09-16T17:23:49;14.70;58.50
10644;DHT22;5370;50.132;8.626;2022-09-16T17:26:15;14.60;58.40
10644;DHT22;5370;50.132;8.626;2022-09-16T17:28:44;14.60;58.60
10644;DHT22;5370;50.132;8.626;2022-09-16T17:31:18;14.40;58.70
10644;DHT22;5370;50.132;8.626;2022-09-16T17:33:48;14.40;58.90
10644;DHT22;5370;50.132;8.626;2022-09-16T17:36:16;14.30;59.30
10644;DHT22;5370;50.132;8.626;2022-09-16T17:38:43;14.20;60.50
10644;DHT22;5370;50.132;8.626;2022-09-16T17:41:12;14.10;60.50
10644;DHT22;5370;50.132;8.626;2022-09-16T17:43:39;14.10;61.50
10644;DHT22;5370;50.132;8.626;2022-09-16T17:46:06;14.00;62.00
10644;DHT22;5370;50.132;8.626;2022-09-16T17:48:32;13.90;62.60
10644;DHT22;5370;50.132;8.626;2022-09-16T17:50:59;13.90;63.20
10644;DHT22;5370;50.132;8.626;2022-09-16T17:53:25;13.80;63.80
10644;DHT22;5370;50.132;8.626;2022-09-16T17:55:51;13.80;64.40
10644;DHT22;5370;50.132;8.626;2022-09-16T17:58:17;13.80;65.10
10644;DHT22;5370;50.132;8.626;2022-09-16T18:00:43;13.80;65.70
10644;DHT22;5370;50.132;8.626;2022-09-16T18:03:10;13.80;65.90
10644;DHT22;5370;50.132;8.626;2022-09-16T18:05:36;13.80;66.10
10644;DHT22;5370;50.132;8.626;2022-09-16T18:08:03;13.70;66.30
10644;DHT22;5370;50.132;8.626;2022-09-16T18:10:29;13.70;67.00
10644;DHT22;5370;50.132;8.626;2022-09-16T18:12:55;13.60;67.20
10644;DHT22;5370;50.132;8.626;2022-09-16T18:15:23;13.50;67.20
10644;DHT22;5370;50.132;8.626;2022-09-16T18:17:48;13.50;67.60
10644;DHT22;5370;50.132;8.626;2022-09-16T18:20:14;13.50;67.60
10644;DHT22;5370;50.132;8.626;2022-09-16T18:22:39;13.40;67.60
10644;DHT22;5370;50.132;8.626;2022-09-16T18:25:05;13.40;67.70
10644;DHT22;5370;50.132;8.626;2022-09-16T18:27:31;13.30;67.90
10644;DHT22;5370;50.132;8.626;2022-09-16T18:29:56;13.30;68.10